Time;durP1;ratioP1;P1;durP2;ratioP2;P2;SDS_P1;SDS_P2;PMS_P1;PMS_P2;Temp;Humidity;BMP_temperature;BMP_pressure;BME280_temperature;BME280_humidity;BME280_pressure;Samples;Min_cycle;Max_cycle;Signal;HPM_P1;HPM_P2
2022/12/07 00:01:10;;;;;;;13.03;5.20;;;;;;;4.91;nan;-23953.72;5039013;28;20179;-72
2022/12/07 00:03:37;;;;;;;9.47;5.63;;;;;;;4.57;nan;-23944.19;5040274;28;20231;-72
2022/12/07 00:06:03;;;;;;;13.77;6.97;;;;;;;4.47;nan;-23941.19;5039113;28;20266;-72
2022/12/07 00:08:30;;;;;;;12.13;6.97;;;;;;;4.77;nan;-23949.72;5040716;28;20182;-72
2022/12/07 00:11:03;;;;;;;11.53;6.20;;;;;;;4.34;nan;-23937.78;5039962;28;20185;-73
2022/12/07 00:13:30;;;;;;;15.40;6.40;;;;;;;4.63;nan;-23945.88;5039407;28;20228;-73
2022/12/07 00:15:55;;;;;;;10.33;6.17;;;;;;;4.18;nan;-23933.22;5039157;28;20262;-73
2022/12/07 00:18:21;;;;;;;12.27;5.63;;;;;;;4.52;nan;-23942.59;5039992;28;20667;-72
2022/12/07 00:20:46;;;;;;;9.63;5.57;;;;;;;4.23;nan;-23934.63;5039279;28;20666;-73
2022/12/07 00:23:11;;;;;;;14.50;6.17;;;;;;;4.17;nan;-23932.94;5035661;28;20207;-73
2022/12/07 00:25:37;;;;;;;12.43;5.63;;;;;;;4.43;nan;-23940.34;5031672;28;20190;-73
2022/12/07 00:28:02;;;;;;;8.23;5.00;;;;;;;4.05;nan;-23929.50;5031804;28;20262;-73
2022/12/07 00:30:28;;;;;;;7.63;4.87;;;;;;;4.12;nan;-23931.34;5031290;28;20298;-74
2022/12/07 00:32:53;;;;;;;15.70;6.93;;;;;;;3.94;nan;-23926.53;5031098;28;20566;-72
2022/12/07 00:35:19;;;;;;;9.07;6.37;;;;;;;4.26;nan;-23935.50;5032061;28;20178;-73
2022/12/07 00:37:44;;;;;;;9.00;5.57;;;;;;;3.95;nan;-23926.66;5031620;28;20179;-72
2022/12/07 00:40:10;;;;;;;10.87;5.57;;;;;;;4.33;nan;-23937.47;5031421;28;20183;-73
2022/12/07 00:42:35;;;;;;;12.07;6.10;;;;;;;4.28;nan;-23936.06;5031587;28;20179;-73
2022/12/07 00:45:01;;;;;;;8.13;5.53;;;;;;;4.10;nan;-23930.78;5031264;28;20203;-72
2022/12/07 00:47:26;;;;;;;13.50;6.60;;;;;;;4.19;nan;-23933.34;5031560;28;20176;-72
2022/12/07 00:49:52;;;;;;;10.83;6.13;;;;;;;4.11;nan;-23931.22;5031723;28;20171;-73
2022/12/07 00:52:17;;;;;;;7.03;5.60;;;;;;;4.17;nan;-23932.78;5031242;28;20202;-73
2022/12/07 00:54:42;;;;;;;9.83;6.00;;;;;;;4.13;nan;-23931.66;5032748;28;20553;-73
2022/12/07 00:57:08;;;;;;;9.33;5.57;;;;;;;4.14;nan;-23932.06;5035078;28;20183;-73
2022/12/07 00:59:33;;;;;;;10.83;5.90;;;;;;;4.16;nan;-23932.50;5033798;28;20273;-72
2022/12/07 01:01:59;;;;;;;10.67;5.30;;;;;;;4.22;nan;-23934.22;5035304;28;20817;-74
2022/12/07 01:04:24;;;;;;;9.63;5.70;;;;;;;3.94;nan;-23926.38;5035081;28;20615;-72
2022/12/07 01:06:49;;;;;;;14.87;5.50;;;;;;;3.88;nan;-23924.66;5035043;28;20171;-72
2022/12/07 01:09:15;;;;;;;11.57;6.33;;;;;;;4.07;nan;-23929.94;5035117;28;20623;-73
2022/12/07 01:11:40;;;;;;;11.00;5.73;;;;;;;3.84;nan;-23923.53;5034881;28;20182;-73
2022/12/07 01:14:06;;;;;;;12.03;5.80;;;;;;;4.20;nan;-23933.63;5035109;28;20181;-73
2022/12/07 01:16:32;;;;;;;17.67;6.60;;;;;;;4.28;nan;-23936.06;5034666;28;20178;-73
2022/12/07 01:18:59;;;;;;;11.13;6.30;;;;;;;4.22;nan;-23934.22;5034314;28;20647;-73
2022/12/07 01:21:34;;;;;;;17.57;6.47;;;;;;;3.80;nan;-23922.53;5033486;28;20197;-72
2022/12/07 01:24:00;;;;;;;11.40;6.37;;;;;;;3.75;nan;-23920.97;5034566;28;20566;-73
2022/12/07 01:26:25;;;;;;;16.33;7.40;;;;;;;4.13;nan;-23931.78;5034728;28;20696;-72
2022/12/07 01:28:54;;;;;;;8.07;5.23;;;;;;;4.07;nan;-23929.94;5034416;28;20209;-73
2022/12/07 01:31:25;;;;;;;12.60;5.67;;;;;;;4.13;nan;-23931.78;5034119;28;20707;-73
2022/12/07 01:33:55;;;;;;;5.63;3.93;;;;;;;4.17;nan;-23932.94;5034429;28;20710;-73
2022/12/07 01:36:32;;;;;;;9.00;4.53;;;;;;;3.69;nan;-23919.41;5034793;28;20174;-73
2022/12/07 01:39:01;;;;;;;8.50;4.83;;;;;;;4.02;nan;-23928.66;5034269;28;20190;-72
2022/12/07 01:41:29;;;;;;;10.07;5.17;;;;;;;4.19;nan;-23933.34;5034343;28;20171;-73
2022/12/07 01:44:24;;;;;;;6.33;4.40;;;;;;;4.30;nan;-23936.50;5034247;28;20277;-72
2022/12/07 01:46:51;;;;;;;9.33;4.63;;;;;;;4.07;nan;-23930.06;5034509;28;20195;-72
2022/12/07 01:49:45;;;;;;;7.30;4.07;;;;;;;4.22;nan;-23934.34;5033951;28;20171;-72
2022/12/07 01:52:16;;;;;;;9.10;3.87;;;;;;;4.34;nan;-23937.78;5030039;28;20253;-73
2022/12/07 01:54:44;;;;;;;6.00;3.83;;;;;;;4.05;nan;-23929.50;5032979;28;20194;-73
2022/12/07 01:57:11;;;;;;;6.30;5.13;;;;;;;1.97;nan;-23870.75;5032042;28;20184;-72
2022/12/07 01:59:37;;;;;;;7.13;4.70;;;;;;;4.22;nan;-23934.34;5033438;28;20630;-72
2022/12/07 02:02:10;;;;;;;7.57;4.00;;;;;;;4.27;nan;-23935.78;5033289;28;20310;-73
2022/12/07 02:04:36;;;;;;;6.20;4.03;;;;;;;4.14;nan;-23932.06;5032547;28;20199;-73
2022/12/07 02:07:03;;;;;;;6.90;4.50;;;;;;;3.42;nan;-23911.84;5033204;28;20193;-72
2022/12/07 02:09:29;;;;;;;10.37;5.07;;;;;;;4.24;nan;-23934.78;5033584;28;20167;-73
2022/12/07 02:11:55;;;;;;;5.70;3.50;;;;;;;4.26;nan;-23935.50;5033292;28;20653;-72
2022/12/07 02:14:20;;;;;;;8.40;4.23;;;;;;;4.31;nan;-23936.91;5033010;28;20258;-73
2022/12/07 02:16:58;;;;;;;9.50;4.33;;;;;;;4.40;nan;-23939.34;5033059;28;20270;-73
2022/12/07 02:19:55;;;;;;;4.40;3.40;;;;;;;4.43;nan;-23940.19;5033249;28;20178;-72
2022/12/07 02:22:42;;;;;;;10.03;4.43;;;;;;;4.48;nan;-23941.47;5023920;28;20201;-73
2022/12/07 02:25:38;;;;;;;7.33;4.47;;;;;;;4.48;nan;-23941.47;5032231;28;20207;-73
2022/12/07 02:28:18;;;;;;;8.23;4.13;;;;;;;4.04;nan;-23929.22;5033590;28;20187;-72
2022/12/07 02:30:48;;;;;;;9.50;4.03;;;;;;;4.45;nan;-23940.75;5033727;28;20178;-73
2022/12/07 02:33:19;;;;;;;7.03;4.23;;;;;;;4.35;nan;-23937.91;5033887;28;20201;-73
2022/12/07 02:35:55;;;;;;;7.70;5.10;;;;;;;3.78;nan;-23921.97;5033240;28;20178;-74
2022/12/07 02:38:30;;;;;;;13.70;4.20;;;;;;;4.43;nan;-23940.19;5033482;28;20254;-73
2022/12/07 02:41:10;;;;;;;11.10;4.63;;;;;;;4.44;nan;-23940.47;5033427;28;20278;-73
2022/12/07 02:43:43;;;;;;;5.10;3.87;;;;;;;4.67;nan;-23946.88;5033455;28;20570;-72
2022/12/07 02:46:13;;;;;;;6.40;4.43;;;;;;;4.53;nan;-23942.91;5032691;28;20163;-73
2022/12/07 02:48:41;;;;;;;6.10;4.40;;;;;;;4.80;nan;-23950.56;5033000;28;20187;-72
2022/12/07 02:51:06;;;;;;;5.13;3.87;;;;;;;4.45;nan;-23940.91;5033545;28;20251;-72
2022/12/07 02:53:45;;;;;;;10.93;5.00;;;;;;;4.32;nan;-23937.06;5031375;28;20719;-73
2022/12/07 02:56:45;;;;;;;9.57;5.30;;;;;;;4.63;nan;-23945.88;5033290;28;20179;-72
2022/12/07 02:59:43;;;;;;;9.23;4.60;;;;;;;4.71;nan;-23948.16;5032962;28;20198;-73
2022/12/07 03:02:42;;;;;;;9.60;3.80;;;;;;;4.69;nan;-23947.44;5020348;28;20215;-73
2022/12/07 03:05:13;;;;;;;6.57;4.20;;;;;;;4.68;nan;-23947.31;5032290;28;20565;-73
2022/12/07 03:08:03;;;;;;;7.13;4.43;;;;;;;4.66;nan;-23946.59;5032575;28;20203;-73
2022/12/07 03:10:43;;;;;;;7.33;4.43;;;;;;;4.72;nan;-23948.44;5032603;28;20178;-73
2022/12/07 03:13:25;;;;;;;6.73;4.33;;;;;;;4.63;nan;-23945.88;5032148;28;20654;-73
2022/12/07 03:16:10;;;;;;;5.33;3.73;;;;;;;4.22;nan;-23934.22;5032612;28;20183;-72
2022/12/07 03:18:46;;;;;;;4.33;3.73;;;;;;;4.28;nan;-23936.06;5032405;28;20181;-74
2022/12/07 03:21:18;;;;;;;6.97;4.20;;;;;;;4.54;nan;-23943.31;5032731;28;20179;-73
2022/12/07 03:23:48;;;;;;;10.93;4.00;;;;;;;4.87;nan;-23952.56;5032519;28;20614;-73
2022/12/07 03:26:16;;;;;;;9.67;4.50;;;;;;;4.82;nan;-23951.28;5032454;28;20241;-73
2022/12/07 03:28:47;;;;;;;6.43;3.43;;;;;;;4.48;nan;-23941.63;5032554;28;20178;-72
2022/12/07 03:31:24;;;;;;;7.80;5.03;;;;;;;4.80;nan;-23950.56;5032335;28;20175;-72
2022/12/07 03:34:06;;;;;;;15.53;4.50;;;;;;;4.73;nan;-23948.59;5032266;28;20175;-72
2022/12/07 03:36:31;;;;;;;7.60;4.43;;;;;;;4.77;nan;-23949.88;5031635;28;20700;-73
2022/12/07 03:40:01;;;;;;;11.13;4.30;;;;;;;4.85;nan;-23952.00;5032037;28;20209;-72
2022/12/07 03:42:27;;;;;;;4.63;3.57;;;;;;;4.80;nan;-23950.56;5012545;28;20206;-72
2022/12/07 03:44:53;;;;;;;11.70;4.93;;;;;;;4.39;nan;-23939.19;5035561;28;20591;-72
2022/12/07 03:47:33;;;;;;;7.20;4.77;;;;;;;4.28;nan;-23936.06;5032441;28;20168;-73
2022/12/07 03:50:02;;;;;;;11.23;4.93;;;;;;;4.32;nan;-23937.19;5030791;28;20195;-73
2022/12/07 03:52:42;;;;;;;6.97;3.70;;;;;;;4.61;nan;-23945.16;5031832;28;20202;-73
2022/12/07 03:55:34;;;;;;;8.00;4.67;;;;;;;4.47;nan;-23941.31;5031895;28;20175;-72
2022/12/07 03:58:04;;;;;;;10.70;4.50;;;;;;;4.26;nan;-23935.50;5031071;28;20556;-72
2022/12/07 04:00:30;;;;;;;13.03;4.87;;;;;;;4.14;nan;-23932.06;5032054;28;20172;-73
2022/12/07 04:02:56;;;;;;;4.57;3.50;;;;;;;4.23;nan;-23934.63;5032146;28;20222;-73
2022/12/07 04:05:22;;;;;;;5.37;3.97;;;;;;;4.29;nan;-23936.19;5031711;28;20278;-72
2022/12/07 04:07:47;;;;;;;9.53;4.20;;;;;;;4.35;nan;-23937.91;5032130;28;20210;-72
2022/12/07 04:10:13;;;;;;;6.63;4.63;;;;;;;4.16;nan;-23932.50;5032100;28;20182;-73
2022/12/07 04:12:39;;;;;;;7.23;4.50;;;;;;;3.97;nan;-23927.22;5029978;28;20217;-73
2022/12/07 04:15:05;;;;;;;11.37;4.77;;;;;;;4.27;nan;-23935.78;5032102;28;20175;-73
2022/12/07 04:17:31;;;;;;;6.83;4.60;;;;;;;4.26;nan;-23935.34;5036520;28;20190;-72
2022/12/07 04:19:56;;;;;;;9.40;4.27;;;;;;;4.27;nan;-23935.63;5035307;28;20187;-73
2022/12/07 04:22:22;;;;;;;7.03;4.30;;;;;;;3.88;nan;-23924.66;5033214;28;20171;-72
2022/12/07 04:24:47;;;;;;;6.77;3.87;;;;;;;3.93;nan;-23926.09;5032940;28;20198;-73
2022/12/07 04:27:12;;;;;;;6.53;3.90;;;;;;;4.20;nan;-23933.78;5033774;28;20210;-72
2022/12/07 04:29:38;;;;;;;9.33;5.10;;;;;;;4.12;nan;-23931.50;5036035;28;20183;-72
2022/12/07 04:32:03;;;;;;;5.80;4.20;;;;;;;3.82;nan;-23922.97;5036989;28;20193;-74
2022/12/07 04:34:29;;;;;;;5.37;3.93;;;;;;;4.17;nan;-23932.94;5037665;28;20178;-73
2022/12/07 04:36:54;;;;;;;10.67;4.27;;;;;;;3.95;nan;-23926.66;5036560;28;20186;-73
2022/12/07 04:39:24;;;;;;;6.77;4.10;;;;;;;3.78;nan;-23921.97;5033821;28;20185;-73
2022/12/07 04:41:50;;;;;;;5.37;3.23;;;;;;;3.72;nan;-23920.25;5037151;28;20179;-72
2022/12/07 04:44:16;;;;;;;8.37;4.13;;;;;;;3.99;nan;-23927.94;5037656;28;20206;-72
2022/12/07 04:46:42;;;;;;;6.07;4.27;;;;;;;3.95;nan;-23926.81;5035231;28;20619;-73
2022/12/07 04:49:08;;;;;;;7.57;5.47;;;;;;;3.91;nan;-23925.53;5036932;28;20270;-73
2022/12/07 04:51:33;;;;;;;5.73;3.70;;;;;;;3.72;nan;-23920.09;5038092;28;20324;-73
2022/12/07 04:53:59;;;;;;;5.23;4.00;;;;;;;3.81;nan;-23922.66;5035589;28;20446;-74
2022/12/07 04:56:25;;;;;;;11.60;4.17;;;;;;;3.68;nan;-23918.97;5037112;28;20183;-73
2022/12/07 04:58:52;;;;;;;6.03;4.43;;;;;;;3.73;nan;-23920.38;5036887;28;20191;-73
2022/12/07 05:01:18;;;;;;;7.53;4.23;;;;;;;3.39;nan;-23910.84;5037169;28;20555;-73
2022/12/07 05:03:44;;;;;;;9.70;4.03;;;;;;;3.59;nan;-23916.41;5035741;28;20646;-74
2022/12/07 05:06:10;;;;;;;7.40;3.73;;;;;;;3.30;nan;-23908.28;5037466;28;20191;-72
2022/12/07 05:08:36;;;;;;;7.83;4.60;;;;;;;3.93;nan;-23926.09;5036063;28;20317;-72
2022/12/07 05:11:03;;;;;;;7.73;4.77;;;;;;;3.70;nan;-23919.69;5034351;28;20611;-75
2022/12/07 05:13:28;;;;;;;7.60;4.90;;;;;;;3.50;nan;-23914.13;5036061;28;20193;-73
2022/12/07 05:15:54;;;;;;;6.03;4.43;;;;;;;3.49;nan;-23913.84;5035360;28;20183;-73
2022/12/07 05:18:19;;;;;;;8.90;4.03;;;;;;;3.77;nan;-23921.53;5034493;28;20823;-73
2022/12/07 05:20:44;;;;;;;3.70;3.27;;;;;;;3.21;nan;-23905.84;5042133;28;20191;-74
2022/12/07 05:23:10;;;;;;;8.57;4.53;;;;;;;3.54;nan;-23915.25;5039486;28;20209;-74
2022/12/07 05:25:36;;;;;;;6.57;4.00;;;;;;;3.68;nan;-23919.09;5034444;28;20194;-74
2022/12/07 05:28:02;;;;;;;8.37;4.63;;;;;;;3.30;nan;-23908.28;5032515;28;20559;-73
2022/12/07 05:30:27;;;;;;;10.73;4.40;;;;;;;3.23;nan;-23906.44;5033594;28;20206;-72
2022/12/07 05:32:53;;;;;;;9.80;4.20;;;;;;;3.26;nan;-23907.13;5033455;28;20203;-74
2022/12/07 05:35:18;;;;;;;6.03;4.10;;;;;;;3.66;nan;-23918.53;5033614;28;20183;-73
2022/12/07 05:37:44;;;;;;;8.07;5.23;;;;;;;3.66;nan;-23918.53;5033472;28;20168;-74
2022/12/07 05:40:10;;;;;;;7.07;4.73;;;;;;;3.61;nan;-23916.97;5032709;28;20633;-74
2022/12/07 05:42:36;;;;;;;9.97;5.83;;;;;;;3.76;nan;-23921.38;5033690;28;20168;-73
2022/12/07 05:45:02;;;;;;;9.97;5.53;;;;;;;3.79;nan;-23922.25;5033700;28;20202;-74
2022/12/07 05:47:27;;;;;;;8.53;4.53;;;;;;;3.79;nan;-23922.25;5033407;28;20321;-75
2022/12/07 05:49:53;;;;;;;14.23;4.90;;;;;;;3.68;nan;-23918.97;5033440;28;20184;-72
2022/12/07 05:52:18;;;;;;;8.63;4.40;;;;;;;3.84;nan;-23923.66;5033815;28;20518;-74
2022/12/07 05:54:43;;;;;;;8.73;4.67;;;;;;;3.68;nan;-23919.09;5033597;28;20183;-74
2022/12/07 05:57:09;;;;;;;12.57;4.77;;;;;;;3.83;nan;-23923.25;5032403;28;20187;-73
2022/12/07 05:59:34;;;;;;;7.83;4.23;;;;;;;4.10;nan;-23930.78;5030424;28;20179;-74
2022/12/07 06:02:05;;;;;;;7.87;4.80;;;;;;;3.99;nan;-23927.94;5033152;28;20231;-74
2022/12/07 06:04:34;;;;;;;8.93;5.00;;;;;;;4.00;nan;-23928.22;5033394;28;20591;-75
2022/12/07 06:06:59;;;;;;;6.90;4.13;;;;;;;3.80;nan;-23922.53;5031883;28;20170;-74
2022/12/07 06:09:27;;;;;;;6.87;4.37;;;;;;;3.91;nan;-23925.66;5032917;28;20167;-75
2022/12/07 06:14:37;;;;;;;6.80;4.30;;;;;;;3.88;nan;-23924.66;5030320;28;20554;-73
2022/12/07 06:17:03;;;;;;;9.67;5.00;;;;;;;3.89;nan;-23924.94;5032739;28;20175;-74
2022/12/07 06:19:28;;;;;;;9.23;4.73;;;;;;;3.82;nan;-23922.97;5032858;28;20183;-74
2022/12/07 06:21:57;;;;;;;5.93;3.20;;;;;;;4.33;nan;-23937.47;5032132;28;20684;-73
2022/12/07 06:24:22;;;;;;;10.93;4.80;;;;;;;4.37;nan;-23938.47;5032921;28;20199;-74
2022/12/07 06:26:48;;;;;;;5.97;4.27;;;;;;;4.42;nan;-23939.91;5032980;28;20661;-74
2022/12/07 06:29:14;;;;;;;6.73;4.10;;;;;;;4.58;nan;-23944.31;5032647;28;20616;-73
2022/12/07 06:31:40;;;;;;;14.47;3.33;;;;;;;4.31;nan;-23936.91;5032796;28;20696;-74
2022/12/07 06:34:09;;;;;;;7.17;4.57;;;;;;;4.71;nan;-23948.03;5032964;28;20167;-74
2022/12/07 06:36:35;;;;;;;7.90;4.30;;;;;;;4.67;nan;-23947.03;5032825;28;20178;-73
2022/12/07 06:39:00;;;;;;;9.63;4.87;;;;;;;4.55;nan;-23943.59;5033478;28;20554;-75
2022/12/07 06:41:26;;;;;;;5.20;3.80;;;;;;;4.45;nan;-23940.91;5036701;28;20261;-75
2022/12/07 06:43:51;;;;;;;8.47;4.07;;;;;;;4.62;nan;-23945.59;5032203;28;20700;-75
2022/12/07 06:46:17;;;;;;;10.77;4.33;;;;;;;4.83;nan;-23951.44;5032563;28;20186;-74
2022/12/07 06:48:43;;;;;;;5.60;3.40;;;;;;;4.86;nan;-23952.44;5032109;28;20230;-75
2022/12/07 06:51:09;;;;;;;8.60;4.07;;;;;;;5.00;nan;-23956.13;5032244;28;20183;-75
2022/12/07 06:53:35;;;;;;;6.80;3.97;;;;;;;5.06;nan;-23957.97;5032402;28;20642;-75
2022/12/07 06:56:01;;;;;;;13.03;4.53;;;;;;;4.80;nan;-23950.56;5032007;28;20186;-73
2022/12/07 06:58:26;;;;;;;19.30;5.33;;;;;;;5.10;nan;-23959.13;5032039;28;20176;-74
2022/12/07 07:00:52;;;;;;;9.80;5.73;;;;;;;5.01;nan;-23956.41;5030418;28;20273;-75
2022/12/07 07:03:17;;;;;;;8.53;5.10;;;;;;;5.16;nan;-23960.81;5031345;28;20223;-74
2022/12/07 07:05:43;;;;;;;19.07;5.07;;;;;;;5.27;nan;-23963.94;5031785;28;20653;-74
2022/12/07 07:08:09;;;;;;;11.57;5.23;;;;;;;5.68;nan;-23975.47;5033626;28;20659;-74
2022/12/07 07:10:35;;;;;;;8.53;4.97;;;;;;;5.79;nan;-23978.59;5030419;28;20187;-75
2022/12/07 07:13:00;;;;;;;10.27;5.10;;;;;;;5.69;nan;-23975.75;5031860;28;20258;-74
2022/12/07 07:15:26;;;;;;;11.40;5.33;;;;;;;6.05;nan;-23985.69;5030564;28;20266;-72
2022/12/07 07:17:51;;;;;;;13.93;6.13;;;;;;;5.93;nan;-23982.28;5032078;28;20174;-73
2022/12/07 07:20:17;;;;;;;13.23;5.83;;;;;;;5.84;nan;-23979.88;5031904;28;20178;-74
2022/12/07 07:22:42;;;;;;;14.87;5.57;;;;;;;6.36;nan;-23994.34;5032364;28;20163;-74
2022/12/07 07:25:08;;;;;;;11.23;6.20;;;;;;;6.28;nan;-23992.09;5044353;28;20745;-73
2022/12/07 07:27:33;;;;;;;13.83;6.97;;;;;;;6.27;nan;-23991.94;5043113;28;20234;-73
2022/12/07 07:29:59;;;;;;;15.27;6.80;;;;;;;6.55;nan;-23999.91;5036523;28;20211;-73
2022/12/07 07:32:24;;;;;;;11.67;6.20;;;;;;;6.52;nan;-23998.91;5031758;28;20373;-72
2022/12/07 07:34:49;;;;;;;10.00;5.40;;;;;;;6.83;nan;-24007.69;5031971;28;20195;-75
2022/12/07 07:37:15;;;;;;;14.80;7.83;;;;;;;6.52;nan;-23998.91;5030319;28;20639;-74
2022/12/07 07:39:40;;;;;;;17.90;8.70;;;;;;;6.49;nan;-23998.19;5033306;28;20206;-74
2022/12/07 07:42:07;;;;;;;16.40;8.07;;;;;;;6.28;nan;-23992.09;5030349;28;20195;-73
2022/12/07 07:44:35;;;;;;;20.60;8.17;;;;;;;6.58;nan;-24000.59;5031356;28;20191;-74
2022/12/07 07:47:01;;;;;;;16.33;8.03;;;;;;;6.81;nan;-24007.13;5031101;28;20635;-74
2022/12/07 07:49:26;;;;;;;20.27;7.87;;;;;;;6.59;nan;-24000.88;5031939;28;20266;-73
2022/12/07 07:51:52;;;;;;;14.10;6.77;;;;;;;6.63;nan;-24002.03;5031352;28;20163;-74
2022/12/07 07:54:17;;;;;;;13.63;7.27;;;;;;;7.02;nan;-24013.09;5030570;28;20174;-76
2022/12/07 07:56:43;;;;;;;10.93;6.40;;;;;;;6.90;nan;-24009.69;5030521;28;20638;-74
2022/12/07 07:59:08;;;;;;;18.73;6.63;;;;;;;7.15;nan;-24016.50;5030963;28;20209;-73
2022/12/07 08:01:34;;;;;;;15.27;7.43;;;;;;;7.58;nan;-24028.69;5030796;28;20466;-74
2022/12/07 08:03:59;;;;;;;21.80;10.43;;;;;;;7.31;nan;-24021.03;5029262;28;20206;-73
2022/12/07 08:06:25;;;;;;;27.07;14.63;;;;;;;7.41;nan;-24023.88;5030306;28;20167;-73
2022/12/07 08:08:50;;;;;;;33.20;18.10;;;;;;;7.24;nan;-24019.19;5031375;28;20655;-74
2022/12/07 08:11:16;;;;;;;27.67;16.03;;;;;;;7.71;nan;-24032.38;5030832;28;20179;-75
2022/12/07 08:13:41;;;;;;;32.37;17.67;;;;;;;7.86;nan;-24036.47;5031014;28;20183;-74
2022/12/07 08:16:10;;;;;;;30.77;15.33;;;;;;;8.28;nan;-24048.38;5029952;28;20179;-75
2022/12/07 08:18:37;;;;;;;28.87;15.23;;;;;;;8.17;nan;-24045.13;5030520;28;20233;-75
2022/12/07 08:21:04;;;;;;;31.98;15.60;;;;;;;8.51;nan;-24054.59;5030736;28;20179;-74
2022/12/07 08:23:31;;;;;;;25.00;13.83;;;;;;;8.22;nan;-24046.69;5028740;28;20203;-74
2022/12/07 08:26:04;;;;;;;25.77;14.33;;;;;;;8.52;nan;-24055.03;5030151;28;20689;-75
2022/12/07 08:28:30;;;;;;;24.60;11.57;;;;;;;8.32;nan;-24049.50;5029835;28;20241;-74
2022/12/07 08:31:01;;;;;;;23.30;11.90;;;;;;;8.91;nan;-24065.78;5031178;28;20175;-75
2022/12/07 08:33:26;;;;;;;17.60;9.30;;;;;;;8.72;nan;-24060.69;5031324;28;20176;-72
2022/12/07 08:35:52;;;;;;;20.27;10.40;;;;;;;9.13;nan;-24072.00;5030879;28;20562;-75
2022/12/07 08:38:17;;;;;;;17.63;9.82;;;;;;;9.47;nan;-24081.63;5030691;28;20274;-74
2022/12/07 08:40:43;;;;;;;20.25;9.38;;;;;;;9.30;nan;-24076.81;5030610;28;20551;-75
2022/12/07 08:43:08;;;;;;;21.35;9.68;;;;;;;9.06;nan;-24070.16;5030465;28;20180;-73
2022/12/07 08:45:35;;;;;;;19.77;10.20;;;;;;;9.47;nan;-24081.63;5031066;28;20202;-73
2022/12/07 08:48:08;;;;;;;10.98;6.72;;;;;;;10.12;nan;-24099.69;5030913;28;20180;-74
2022/12/07 08:50:36;;;;;;;15.10;7.82;;;;;;;10.28;nan;-24104.06;5030616;28;20255;-74
2022/12/07 08:53:04;;;;;;;14.38;6.43;;;;;;;10.41;nan;-24107.88;5030120;28;20190;-73
2022/12/07 08:55:30;;;;;;;17.52;7.22;;;;;;;10.34;nan;-24105.91;5029883;28;20202;-74
2022/12/07 08:57:58;;;;;;;17.58;7.15;;;;;;;10.50;nan;-24110.44;5030532;28;20194;-75
2022/12/07 09:00:23;;;;;;;11.82;6.22;;;;;;;10.69;nan;-24115.66;5030539;28;20179;-75
2022/12/07 09:02:49;;;;;;;12.43;6.10;;;;;;;10.76;nan;-24117.47;5028797;28;20226;-72
2022/12/07 09:05:14;;;;;;;15.55;6.72;;;;;;;10.98;nan;-24123.84;5030503;28;20188;-75
2022/12/07 09:07:42;;;;;;;17.23;7.80;;;;;;;10.97;nan;-24123.41;5029273;28;20186;-75
2022/12/07 09:10:07;;;;;;;20.70;7.35;;;;;;;11.21;nan;-24130.19;5030691;28;20250;-72
2022/12/07 09:12:33;;;;;;;15.88;7.35;;;;;;;11.12;nan;-24127.63;5030493;28;20171;-74
2022/12/07 09:15:00;;;;;;;20.77;8.77;;;;;;;11.42;nan;-24136.09;5031038;28;20203;-72
2022/12/07 09:17:26;;;;;;;15.05;7.13;;;;;;;7.88;nan;-24037.19;5034640;28;20194;-75
2022/12/07 09:19:51;;;;;;;18.15;8.02;;;;;;;11.03;nan;-24125.09;5033977;28;20624;-74
2022/12/07 09:22:17;;;;;;;12.32;6.63;;;;;;;11.03;nan;-24125.09;5034046;28;20167;-74
2022/12/07 09:24:43;;;;;;;19.23;7.50;;;;;;;9.95;nan;-24094.91;5033951;28;20539;-73
2022/12/07 09:27:08;;;;;;;16.85;8.45;;;;;;;10.84;nan;-24119.75;5032740;28;20220;-73
2022/12/07 09:29:34;;;;;;;17.00;7.13;;;;;;;11.25;nan;-24131.16;5033561;28;20530;-73
2022/12/07 09:31:59;;;;;;;14.38;7.57;;;;;;;11.39;nan;-24135.09;5033721;28;20173;-73
2022/12/07 09:34:26;;;;;;;13.68;6.80;;;;;;;11.40;nan;-24135.38;5033041;28;20539;-73
2022/12/07 09:36:52;;;;;;;14.23;6.95;;;;;;;11.55;nan;-24139.63;5034018;28;20638;-74
2022/12/07 09:39:17;;;;;;;23.92;8.10;;;;;;;11.73;nan;-24144.56;5033770;28;20172;-75
2022/12/07 09:41:44;;;;;;;24.55;8.30;;;;;;;11.71;nan;-24143.97;5032044;28;20207;-73
2022/12/07 09:44:13;;;;;;;13.35;6.60;;;;;;;10.91;nan;-24121.72;5033332;28;20282;-75
2022/12/07 09:46:41;;;;;;;20.17;7.65;;;;;;;11.13;nan;-24127.91;5033447;28;20266;-73
2022/12/07 09:49:14;;;;;;;18.48;7.75;;;;;;;11.31;nan;-24133.00;5033124;28;20175;-72
2022/12/07 09:51:40;;;;;;;21.08;8.30;;;;;;;11.35;nan;-24133.97;5033868;28;20266;-74
2022/12/07 09:54:05;;;;;;;14.10;7.70;;;;;;;11.30;nan;-24132.56;5037804;28;20633;-71
2022/12/07 09:56:31;;;;;;;20.83;8.25;;;;;;;11.37;nan;-24134.69;5033027;28;20179;-71
2022/12/07 09:59:03;;;;;;;13.73;7.32;;;;;;;11.54;nan;-24139.34;5032873;28;20270;-72
2022/12/07 10:01:32;;;;;;;17.10;7.53;;;;;;;11.82;nan;-24147.09;5031225;28;20553;-72
2022/12/07 10:04:19;;;;;;;16.67;8.10;;;;;;;11.27;nan;-24131.88;5033046;28;20223;-74
2022/12/07 10:06:45;;;;;;;17.98;7.88;;;;;;;12.01;nan;-24152.44;5032819;28;20590;-73
2022/12/07 10:09:13;;;;;;;19.33;7.78;;;;;;;11.92;nan;-24149.91;5033096;28;20643;-75
2022/12/07 10:12:06;;;;;;;16.38;7.95;;;;;;;11.80;nan;-24146.53;5033270;28;20259;-73
2022/12/07 10:14:34;;;;;;;21.67;8.60;;;;;;;11.61;nan;-24141.16;5033065;28;20175;-75
2022/12/07 10:17:00;;;;;;;18.48;8.27;;;;;;;11.08;nan;-24126.50;5033190;28;20377;-72
2022/12/07 10:19:35;;;;;;;15.80;8.38;;;;;;;12.00;nan;-24152.00;5033172;28;20251;-73
2022/12/07 10:22:11;;;;;;;15.52;7.88;;;;;;;11.42;nan;-24136.09;5032843;28;20257;-74
2022/12/07 10:24:42;;;;;;;12.32;6.70;;;;;;;11.48;nan;-24137.78;5032853;28;20191;-73
2022/12/07 10:27:18;;;;;;;22.00;7.07;;;;;;;11.36;nan;-24134.41;5028511;28;20887;-75
2022/12/07 10:29:52;;;;;;;14.32;7.03;;;;;;;11.05;nan;-24125.81;5013035;28;20263;-73
2022/12/07 10:32:17;;;;;;;9.93;5.88;;;;;;;10.60;nan;-24113.13;5012988;28;20255;-76
2022/12/07 10:34:43;;;;;;;14.82;6.18;;;;;;;10.39;nan;-24107.31;5011176;28;20259;-74
2022/12/07 10:37:14;;;;;;;11.88;6.40;;;;;;;10.54;nan;-24111.56;5012493;28;20184;-74
2022/12/07 10:39:51;;;;;;;11.75;6.43;;;;;;;11.06;nan;-24125.94;5013048;28;20180;-75
2022/12/07 10:42:24;;;;;;;14.63;7.75;;;;;;;11.38;nan;-24134.81;5013496;28;20164;-76
2022/12/07 10:45:15;;;;;;;16.48;6.70;;;;;;;11.63;nan;-24141.88;5013231;28;20204;-73
2022/12/07 10:48:08;;;;;;;11.02;5.90;;;;;;;12.03;nan;-24153.00;5013057;28;20176;-74
2022/12/07 10:51:12;;;;;;;16.52;7.47;;;;;;;12.40;nan;-24163.41;5013174;28;20187;-73
2022/12/07 10:53:47;;;;;;;18.35;7.10;;;;;;;12.47;nan;-24165.25;5013046;28;20163;-74
2022/12/07 10:56:50;;;;;;;13.60;6.47;;;;;;;11.39;nan;-24135.25;5012721;28;20170;-75
2022/12/07 10:59:15;;;;;;;11.40;6.38;;;;;;;11.51;nan;-24138.50;5013377;28;20172;-75
2022/12/07 11:02:30;;;;;;;16.40;5.65;;;;;;;11.99;nan;-24151.88;5016083;28;20386;-73
2022/12/07 11:05:17;;;;;;;14.90;6.53;;;;;;;11.05;nan;-24125.66;5018475;28;20227;-73
2022/12/07 11:07:56;;;;;;;15.52;5.75;;;;;;;12.63;nan;-24169.75;5013432;28;20171;-74
2022/12/07 11:10:32;;;;;;;15.32;7.90;;;;;;;12.73;nan;-24172.41;5033799;28;20187;-75
2022/12/07 11:13:36;;;;;;;18.45;6.63;;;;;;;12.69;nan;-24171.28;5032552;28;20714;-75
2022/12/07 11:16:46;;;;;;;14.00;5.65;;;;;;;12.29;nan;-24160.31;5032435;28;20275;-74
2022/12/07 11:19:24;;;;;;;13.30;7.22;;;;;;;12.16;nan;-24156.53;5010075;28;20192;-73
2022/12/07 11:22:06;;;;;;;10.38;5.28;;;;;;;11.72;nan;-24144.41;5011254;28;20183;-73
2022/12/07 11:24:54;;;;;;;14.13;6.47;;;;;;;11.43;nan;-24136.38;5012026;28;20206;-72
2022/12/07 11:27:33;;;;;;;12.75;6.18;;;;;;;11.41;nan;-24135.66;5011648;28;20196;-75
2022/12/07 11:30:13;;;;;;;13.73;6.32;;;;;;;10.91;nan;-24121.72;5011991;28;20168;-73
2022/12/07 11:32:57;;;;;;;14.32;5.88;;;;;;;11.34;nan;-24133.84;5012369;28;20164;-74
2022/12/07 11:35:35;;;;;;;12.95;6.68;;;;;;;10.93;nan;-24122.41;5011770;28;20604;-75
2022/12/07 11:38:11;;;;;;;12.27;5.63;;;;;;;10.66;nan;-24114.81;5011190;28;20226;-74
2022/12/07 11:40:40;;;;;;;10.35;6.43;;;;;;;10.42;nan;-24108.03;5021500;28;20171;-74
2022/12/07 11:43:21;;;;;;;12.68;6.30;;;;;;;11.07;nan;-24126.38;5032730;28;20283;-75
2022/12/07 11:46:11;;;;;;;14.63;7.75;;;;;;;6.63;nan;-24002.16;5031641;28;20167;-73
2022/12/07 11:48:46;;;;;;;14.48;5.97;;;;;;;11.03;nan;-24125.09;5031333;28;20187;-74
2022/12/07 11:51:13;;;;;;;12.32;6.07;;;;;;;11.21;nan;-24130.03;5031675;28;20247;-74
2022/12/07 11:53:41;;;;;;;14.93;6.57;;;;;;;11.19;nan;-24129.59;5032250;28;20234;-74
2022/12/07 11:56:13;;;;;;;13.70;6.18;;;;;;;10.86;nan;-24120.44;5031717;28;20542;-74
2022/12/07 11:58:49;;;;;;;11.27;5.85;;;;;;;11.36;nan;-24134.41;5031912;28;20250;-74
2022/12/07 12:01:16;;;;;;;13.25;6.28;;;;;;;11.42;nan;-24136.09;5032353;28;20159;-73